Time;durP1;ratioP1;P1;durP2;ratioP2;P2;SDS_P1;SDS_P2;PMS_P1;PMS_P2;Temp;Humidity;BMP_temperature;BMP_pressure;BME280_temperature;BME280_humidity;BME280_pressure;Samples;Min_cycle;Max_cycle;Signal;HPM_P1;HPM_P2
2023/09/16 00:00:46;;;;;;;7.03;2.70;;;25.80;53.20;;;;;;6240820;28;20397;-77
2023/09/16 00:03:50;;;;;;;4.13;2.80;;;25.80;53.20;;;;;;6240544;28;20033;-78
2023/09/16 00:06:51;;;;;;;6.13;2.80;;;25.80;53.20;;;;;;6240000;28;20544;-78
2023/09/16 00:09:55;;;;;;;4.45;2.80;;;25.80;53.20;;;;;;6240018;28;20038;-78
2023/09/16 00:12:56;;;;;;;4.57;3.03;;;25.80;53.20;;;;;;6238682;28;20061;-79
2023/09/16 00:15:57;;;;;;;3.85;2.55;;;25.80;53.20;;;;;;6240217;28;20357;-79
2023/09/16 00:18:58;;;;;;;7.78;2.70;;;25.70;53.20;;;;;;6238588;28;20094;-78
2023/09/16 00:21:58;;;;;;;3.10;2.28;;;25.70;53.30;;;;;;6238346;28;20109;-78
2023/09/16 00:25:04;;;;;;;6.68;3.45;;;25.60;53.40;;;;;;6239512;28;20107;-78
2023/09/16 00:28:06;;;;;;;4.93;3.03;;;25.60;53.40;;;;;;6240043;28;20061;-78
2023/09/16 00:31:07;;;;;;;8.80;2.67;;;25.50;53.60;;;;;;6239663;28;20465;-79
2023/09/16 00:34:08;;;;;;;4.30;2.30;;;25.50;53.60;;;;;;6238561;28;20033;-78
2023/09/16 00:37:09;;;;;;;7.53;2.47;;;25.50;53.70;;;;;;6221716;28;20079;-78
2023/09/16 00:40:11;;;;;;;5.63;2.78;;;25.50;53.80;;;;;;6239397;28;20108;-78
2023/09/16 00:43:11;;;;;;;7.97;2.50;;;25.50;53.90;;;;;;6237862;28;20474;-78
2023/09/16 00:46:12;;;;;;;3.38;2.40;;;25.50;53.90;;;;;;6237713;28;20056;-78
2023/09/16 00:49:13;;;;;;;4.30;2.83;;;25.50;54.00;;;;;;6221102;28;20123;-80
2023/09/16 00:52:15;;;;;;;3.65;2.53;;;25.50;54.00;;;;;;6237520;28;20113;-78
2023/09/16 00:55:16;;;;;;;5.93;2.40;;;25.50;54.10;;;;;;6237460;28;20025;-78
2023/09/16 00:58:17;;;;;;;3.47;2.60;;;25.50;54.20;;;;;;6239127;28;20025;-78
2023/09/16 01:01:18;;;;;;;6.85;2.92;;;25.50;54.20;;;;;;6238790;28;20034;-78
2023/09/16 01:04:21;;;;;;;3.47;2.58;;;25.50;54.20;;;;;;6238704;28;20431;-78
2023/09/16 01:07:24;;;;;;;6.10;3.28;;;25.50;54.20;;;;;;6237350;28;20026;-77
2023/09/16 01:10:25;;;;;;;3.42;2.25;;;25.50;54.20;;;;;;6236708;28;20137;-78
2023/09/16 01:13:26;;;;;;;3.60;2.60;;;25.50;54.40;;;;;;6237351;28;20082;-79
2023/09/16 01:16:38;;;;;;;8.60;3.15;;;25.40;54.30;;;;;;6238479;28;20041;-78
2023/09/16 01:19:43;;;;;;;4.68;2.47;;;25.40;54.40;;;;;;6238569;28;20449;-78
2023/09/16 01:22:45;;;;;;;14.40;3.25;;;25.40;54.40;;;;;;6214057;28;20054;-78
2023/09/16 01:25:46;;;;;;;5.43;3.05;;;25.30;54.40;;;;;;6214314;28;20100;-78
2023/09/16 01:28:47;;;;;;;10.68;3.35;;;25.30;54.40;;;;;;6214208;28;20036;-78
2023/09/16 01:31:48;;;;;;;11.80;3.15;;;25.30;54.30;;;;;;6214133;28;20142;-78
2023/09/16 01:34:53;;;;;;;5.60;2.50;;;25.20;54.20;;;;;;6212556;28;20485;-78
2023/09/16 01:37:55;;;;;;;4.22;2.55;;;25.20;54.30;;;;;;6213930;28;20152;-78
2023/09/16 01:40:57;;;;;;;5.65;2.08;;;25.20;54.20;;;;;;6212083;28;20350;-78
2023/09/16 01:43:58;;;;;;;9.10;2.67;;;25.20;54.10;;;;;;6212228;28;20131;-78
2023/09/16 01:46:59;;;;;;;3.80;2.53;;;25.20;54.10;;;;;;6235568;28;20120;-78
2023/09/16 01:50:00;;;;;;;3.97;2.50;;;25.20;54.20;;;;;;6229931;28;20064;-79
2023/09/16 01:53:02;;;;;;;6.13;3.35;;;25.10;54.30;;;;;;6219359;28;20160;-79
2023/09/16 01:56:03;;;;;;;6.55;3.47;;;25.10;54.60;;;;;;6213696;28;20030;-78
2023/09/16 01:59:05;;;;;;;12.00;2.58;;;25.10;54.80;;;;;;6212472;28;20114;-79
2023/09/16 02:02:05;;;;;;;5.53;2.63;;;25.10;54.80;;;;;;6212235;28;20146;-78
2023/09/16 02:05:07;;;;;;;6.50;2.58;;;25.10;54.80;;;;;;6212961;28;20041;-79
2023/09/16 02:08:08;;;;;;;5.90;2.85;;;25.00;54.80;;;;;;6212928;28;20060;-78
2023/09/16 02:11:09;;;;;;;5.10;2.40;;;25.00;54.80;;;;;;6220789;28;20045;-79
2023/09/16 02:14:12;;;;;;;4.32;2.70;;;25.00;54.80;;;;;;6236239;28;20308;-78
2023/09/16 02:17:13;;;;;;;6.65;2.60;;;24.90;54.80;;;;;;6236320;28;20514;-77
2023/09/16 02:20:14;;;;;;;5.15;2.28;;;24.90;54.90;;;;;;6236196;28;20041;-80
2023/09/16 02:23:15;;;;;;;5.68;2.17;;;24.80;55.40;;;;;;6220861;28;20486;-78
2023/09/16 02:26:16;;;;;;;4.35;2.20;;;24.70;55.10;;;;;;6236390;28;20033;-79
2023/09/16 02:29:17;;;;;;;5.93;2.63;;;24.70;55.10;;;;;;6236531;28;20026;-79
2023/09/16 02:32:18;;;;;;;4.22;2.47;;;24.70;55.10;;;;;;6236505;28;20030;-78
2023/09/16 02:35:19;;;;;;;4.28;2.60;;;24.60;55.10;;;;;;6236464;28;20501;-78
2023/09/16 02:38:20;;;;;;;3.80;2.75;;;24.60;55.20;;;;;;6235931;28;20431;-77
2023/09/16 02:41:21;;;;;;;9.25;2.28;;;24.50;55.50;;;;;;6236032;28;20171;-78
2023/09/16 02:44:23;;;;;;;6.97;2.80;;;24.50;55.80;;;;;;6236234;28;20045;-78
2023/09/16 02:47:24;;;;;;;3.83;2.30;;;24.40;56.10;;;;;;6238173;28;20041;-78
2023/09/16 02:50:24;;;;;;;9.27;4.22;;;24.40;56.40;;;;;;6223972;28;20037;-77
2023/09/16 02:53:25;;;;;;;7.70;2.50;;;24.30;56.50;;;;;;6242177;28;20025;-77
2023/09/16 02:56:27;;;;;;;4.88;3.05;;;24.30;56.60;;;;;;6242470;28;20428;-77
2023/09/16 02:59:29;;;;;;;5.28;2.42;;;24.20;56.60;;;;;;6240413;28;20120;-77
2023/09/16 03:02:30;;;;;;;7.35;2.80;;;24.20;56.80;;;;;;6240719;28;20103;-78
2023/09/16 03:05:32;;;;;;;3.92;2.45;;;24.20;56.90;;;;;;6240260;28;20040;-78
2023/09/16 03:08:33;;;;;;;5.32;2.78;;;24.20;56.90;;;;;;6240358;28;20045;-78
2023/09/16 03:11:38;;;;;;;5.63;2.60;;;24.20;56.90;;;;;;6240474;28;20101;-78
2023/09/16 03:14:38;;;;;;;5.43;2.70;;;24.10;56.90;;;;;;6240804;28;20095;-77
2023/09/16 03:17:39;;;;;;;4.00;2.53;;;24.10;57.10;;;;;;6223818;28;20148;-77
2023/09/16 03:20:40;;;;;;;5.72;3.08;;;24.00;57.20;;;;;;6240396;28;20113;-77
2023/09/16 03:23:42;;;;;;;5.50;2.95;;;24.00;57.40;;;;;;6240455;28;20374;-77
2023/09/16 03:26:43;;;;;;;4.93;2.50;;;24.00;57.50;;;;;;6239807;28;20033;-77
2023/09/16 03:29:45;;;;;;;3.95;2.88;;;24.00;57.50;;;;;;6241249;28;20033;-79
2023/09/16 03:32:46;;;;;;;4.32;2.47;;;24.00;57.50;;;;;;6239545;28;20056;-78
2023/09/16 03:35:49;;;;;;;4.03;2.85;;;24.00;57.40;;;;;;6239695;28;20026;-78
2023/09/16 03:38:50;;;;;;;6.88;2.92;;;24.00;57.40;;;;;;6223006;28;20666;-78
2023/09/16 03:41:51;;;;;;;9.30;2.60;;;24.00;57.30;;;;;;6221638;28;20120;-79
2023/09/16 03:44:53;;;;;;;4.50;2.28;;;24.00;57.20;;;;;;6229043;28;20041;-78
2023/09/16 03:47:54;;;;;;;12.20;2.45;;;24.00;57.10;;;;;;6239378;28;20037;-77
2023/09/16 03:50:55;;;;;;;6.88;2.55;;;24.00;57.00;;;;;;6239101;28;20033;-78
2023/09/16 03:53:56;;;;;;;6.28;2.63;;;24.00;56.90;;;;;;6222999;28;20076;-78
2023/09/16 03:56:57;;;;;;;5.13;2.65;;;24.10;56.80;;;;;;6239077;28;20156;-78
2023/09/16 03:59:58;;;;;;;5.25;2.40;;;24.10;56.80;;;;;;6237543;28;20052;-78
2023/09/16 04:02:59;;;;;;;4.32;2.28;;;24.00;56.70;;;;;;6238749;28;20081;-78
2023/09/16 04:06:01;;;;;;;5.03;2.90;;;24.00;56.70;;;;;;6238065;28;20030;-77
2023/09/16 04:09:02;;;;;;;4.72;2.88;;;24.00;56.80;;;;;;6238900;28;20099;-79
2023/09/16 04:12:03;;;;;;;13.00;3.00;;;24.10;56.80;;;;;;6222655;28;20124;-79
2023/09/16 04:15:04;;;;;;;3.67;2.50;;;24.10;56.60;;;;;;6230900;28;20087;-77
2023/09/16 04:18:05;;;;;;;3.97;2.70;;;24.10;56.60;;;;;;6230564;28;20454;-78
2023/09/16 04:21:06;;;;;;;8.48;3.17;;;24.10;56.50;;;;;;6213544;28;20034;-79
2023/09/16 04:24:08;;;;;;;5.38;2.50;;;24.10;56.50;;;;;;6197462;28;20033;-77
2023/09/16 04:27:08;;;;;;;7.68;2.95;;;24.10;56.60;;;;;;6197423;28;20034;-77
2023/09/16 04:30:10;;;;;;;8.43;3.10;;;24.10;56.60;;;;;;6229691;28;20083;-76
2023/09/16 04:33:11;;;;;;;6.88;2.83;;;24.10;56.60;;;;;;6214203;28;20034;-78
2023/09/16 04:36:12;;;;;;;3.55;2.33;;;24.10;56.70;;;;;;6230234;28;20041;-77
2023/09/16 04:39:14;;;;;;;5.53;2.58;;;24.10;56.70;;;;;;6231321;28;20029;-77
2023/09/16 04:42:15;;;;;;;4.47;2.50;;;24.00;56.70;;;;;;6221166;28;20077;-77
2023/09/16 04:45:16;;;;;;;4.05;2.80;;;24.00;56.80;;;;;;6237284;28;20128;-77
2023/09/16 04:48:17;;;;;;;4.38;2.60;;;24.00;56.80;;;;;;6237582;28;20045;-78
2023/09/16 04:51:18;;;;;;;4.35;2.67;;;24.00;56.90;;;;;;6220818;28;20064;-78
2023/09/16 04:54:20;;;;;;;5.43;2.72;;;23.90;57.00;;;;;;6237811;28;20120;-78
2023/09/16 04:57:21;;;;;;;10.25;3.55;;;24.00;57.20;;;;;;6237424;28;20029;-78
2023/09/16 05:00:22;;;;;;;5.03;2.60;;;23.90;57.20;;;;;;6221172;28;20135;-78
2023/09/16 05:03:23;;;;;;;5.60;2.85;;;23.90;57.30;;;;;;6220779;28;20041;-78
2023/09/16 05:06:24;;;;;;;4.93;2.70;;;23.90;57.40;;;;;;6236948;28;20033;-78
2023/09/16 05:09:25;;;;;;;5.70;2.40;;;23.90;57.50;;;;;;6220109;28;20033;-79
2023/09/16 05:12:26;;;;;;;4.97;2.47;;;23.80;57.50;;;;;;6213016;28;20092;-78
2023/09/16 05:15:27;;;;;;;12.88;2.95;;;23.80;57.50;;;;;;6228864;28;20033;-77
2023/09/16 05:18:28;;;;;;;7.20;3.20;;;23.80;57.50;;;;;;6229261;28;20045;-78
2023/09/16 05:21:29;;;;;;;6.22;3.00;;;23.80;58.10;;;;;;6228931;28;20034;-78
2023/09/16 05:24:31;;;;;;;3.67;2.30;;;23.70;57.40;;;;;;6229118;28;20483;-79
2023/09/16 05:27:32;;;;;;;7.72;2.97;;;23.70;57.50;;;;;;6228829;28;20057;-78
2023/09/16 05:30:33;;;;;;;5.40;2.00;;;23.70;57.40;;;;;;6213679;28;20033;-78
2023/09/16 05:33:34;;;;;;;3.63;2.40;;;23.70;57.40;;;;;;6233755;28;20477;-78
2023/09/16 05:36:35;;;;;;;6.18;2.33;;;23.70;57.20;;;;;;6261578;28;20033;-77
2023/09/16 05:39:35;;;;;;;5.30;2.50;;;23.80;57.10;;;;;;6261721;28;20497;-78
2023/09/16 05:42:37;;;;;;;6.72;2.40;;;23.80;56.90;;;;;;6262104;28;20060;-78
2023/09/16 05:45:38;;;;;;;5.93;2.35;;;23.90;56.70;;;;;;6249491;28;20037;-79
2023/09/16 05:48:41;;;;;;;6.10;2.42;;;24.00;56.40;;;;;;6220819;28;20200;-77
2023/09/16 05:51:42;;;;;;;4.88;2.92;;;24.10;56.20;;;;;;6236670;28;20462;-78
2023/09/16 05:54:43;;;;;;;6.78;2.70;;;24.20;56.10;;;;;;6236945;28;20045;-77
2023/09/16 05:57:44;;;;;;;5.20;3.00;;;24.30;55.90;;;;;;6236679;28;20065;-79
2023/09/16 06:00:56;;;;;;;4.20;2.55;;;24.30;55.70;;;;;;6236431;28;20029;-78
2023/09/16 06:03:57;;;;;;;5.32;2.40;;;24.30;55.80;;;;;;6236581;28;20076;-77
2023/09/16 06:06:58;;;;;;;4.97;2.63;;;24.20;55.80;;;;;;6236471;28;20616;-77
2023/09/16 06:09:59;;;;;;;3.65;2.38;;;24.20;55.70;;;;;;6236379;28;20112;-78
2023/09/16 06:13:00;;;;;;;4.30;2.40;;;24.20;55.80;;;;;;6213353;28;20030;-77
2023/09/16 06:16:01;;;;;;;3.75;2.47;;;24.20;55.80;;;;;;6212105;28;20103;-77
2023/09/16 06:19:03;;;;;;;4.00;2.30;;;24.20;55.70;;;;;;6212252;28;20045;-78
2023/09/16 06:22:04;;;;;;;4.70;2.25;;;24.30;55.70;;;;;;6229984;28;20034;-77
2023/09/16 06:25:05;;;;;;;4.10;2.28;;;24.30;55.70;;;;;;6233241;28;20450;-76
2023/09/16 06:28:06;;;;;;;4.57;2.70;;;24.30;55.70;;;;;;6199829;28;20088;-76
2023/09/16 06:31:09;;;;;;;5.72;2.55;;;24.40;55.60;;;;;;6237794;28;20034;-77
2023/09/16 06:34:14;;;;;;;8.55;2.65;;;24.50;55.40;;;;;;6216276;28;20025;-78
2023/09/16 06:37:14;;;;;;;5.80;2.63;;;24.40;55.30;;;;;;6216269;28;20128;-78
2023/09/16 06:40:20;;;;;;;3.72;2.10;;;24.60;55.20;;;;;;6215926;28;20060;-78
2023/09/16 06:43:21;;;;;;;5.45;2.67;;;24.70;55.00;;;;;;6216069;28;20449;-77
2023/09/16 06:46:23;;;;;;;6.55;2.60;;;24.70;55.50;;;;;;6234366;28;20060;-78
2023/09/16 06:49:24;;;;;;;4.50;2.72;;;24.70;54.80;;;;;;6242133;28;20501;-83
2023/09/16 06:52:27;;;;;;;5.53;2.35;;;24.70;54.90;;;;;;6224959;28;20174;-80
2023/09/16 06:55:28;;;;;;;4.80;2.38;;;24.70;54.90;;;;;;6243542;28;20028;-80
2023/09/16 06:58:29;;;;;;;3.38;2.45;;;24.70;54.90;;;;;;6241250;28;20721;-78
2023/09/16 07:01:30;;;;;;;6.82;2.65;;;24.80;54.90;;;;;;6242196;28;20025;-79
2023/09/16 07:04:31;;;;;;;8.73;2.60;;;24.70;55.00;;;;;;6242401;28;20490;-79
2023/09/16 07:07:32;;;;;;;5.28;2.50;;;24.70;55.10;;;;;;6242768;28;20029;-79
2023/09/16 07:10:32;;;;;;;3.88;2.28;;;24.70;55.10;;;;;;6242441;28;20560;-79
2023/09/16 07:13:33;;;;;;;2.60;2.03;;;24.70;55.40;;;;;;6241813;28;20030;-78
2023/09/16 07:16:40;;;;;;;5.05;2.97;;;24.60;55.50;;;;;;6240542;28;20547;-79
2023/09/16 07:19:41;;;;;;;4.15;2.83;;;24.60;55.70;;;;;;6240321;28;20056;-78
2023/09/16 07:22:42;;;;;;;7.40;2.83;;;24.60;55.60;;;;;;6242044;28;20033;-80
2023/09/16 07:25:51;;;;;;;4.75;2.35;;;24.50;55.70;;;;;;6240300;28;20128;-79
2023/09/16 07:28:52;;;;;;;6.07;2.15;;;24.50;56.00;;;;;;6215861;28;20406;-80
2023/09/16 07:31:53;;;;;;;4.47;2.47;;;24.40;56.10;;;;;;6216785;28;20117;-78
2023/09/16 07:34:53;;;;;;;5.95;3.00;;;24.30;56.40;;;;;;6215629;28;20160;-79
2023/09/16 07:37:54;;;;;;;5.43;2.95;;;24.30;56.80;;;;;;6217096;28;20527;-79
2023/09/16 07:40:55;;;;;;;6.03;2.83;;;24.30;57.20;;;;;;6215569;28;20083;-80
2023/09/16 07:43:56;;;;;;;7.45;3.30;;;24.30;57.50;;;;;;6216865;28;20037;-79
2023/09/16 07:46:56;;;;;;;15.77;2.92;;;24.30;57.80;;;;;;6239594;28;20025;-79
2023/09/16 07:49:57;;;;;;;4.97;3.03;;;24.20;57.90;;;;;;6241012;28;20033;-79
2023/09/16 07:52:58;;;;;;;4.65;2.50;;;24.30;58.20;;;;;;6239698;28;20206;-79
2023/09/16 07:55:59;;;;;;;5.72;2.42;;;24.20;58.00;;;;;;6240373;28;20128;-78
2023/09/16 07:59:00;;;;;;;3.00;1.98;;;24.20;57.70;;;;;;6239159;28;20037;-79
2023/09/16 08:02:01;;;;;;;4.50;2.22;;;24.30;57.50;;;;;;6240766;28;20029;-79
2023/09/16 08:05:01;;;;;;;12.55;2.28;;;24.30;57.30;;;;;;6240561;28;20041;-79
2023/09/16 08:08:03;;;;;;;5.75;2.75;;;24.40;57.20;;;;;;6239356;28;20041;-79
2023/09/16 08:11:04;;;;;;;7.20;2.53;;;24.50;56.90;;;;;;6238812;28;20033;-80
2023/09/16 08:14:05;;;;;;;5.03;2.78;;;24.60;56.70;;;;;;6241223;28;20207;-80
2023/09/16 08:17:05;;;;;;;6.70;2.75;;;24.60;56.60;;;;;;6238993;28;20067;-79
2023/09/16 08:20:08;;;;;;;5.15;2.08;;;24.70;56.60;;;;;;6240169;28;20037;-80
2023/09/16 08:23:10;;;;;;;3.88;2.00;;;24.70;56.80;;;;;;6212863;28;20140;-79
2023/09/16 08:26:11;;;;;;;4.03;2.30;;;24.70;56.70;;;;;;6214065;28;20033;-80
2023/09/16 08:29:12;;;;;;;5.50;3.20;;;24.70;56.90;;;;;;6214084;28;20077;-79
2023/09/16 08:32:13;;;;;;;5.55;2.40;;;24.80;56.90;;;;;;6214000;28;20113;-79
2023/09/16 08:35:14;;;;;;;6.82;2.92;;;24.90;56.90;;;;;;6213860;28;20359;-79
2023/09/16 08:38:14;;;;;;;8.23;2.88;;;25.10;56.90;;;;;;6213732;28;20120;-79
2023/09/16 08:41:27;;;;;;;10.88;3.40;;;25.10;56.90;;;;;;6213469;28;20040;-79
2023/09/16 08:44:35;;;;;;;6.13;2.45;;;25.10;56.90;;;;;;6213037;28;20696;-80
2023/09/16 08:47:48;;;;;;;7.30;3.30;;;25.10;57.00;;;;;;6237995;28;20041;-78
2023/09/16 08:50:53;;;;;;;10.38;3.28;;;25.10;57.10;;;;;;6238952;28;20505;-75
2023/09/16 08:53:55;;;;;;;12.38;4.30;;;25.20;57.20;;;;;;6236644;28;20103;-77
2023/09/16 08:56:58;;;;;;;8.32;3.60;;;25.20;57.00;;;;;;6236110;28;20044;-77
2023/09/16 08:59:58;;;;;;;13.07;3.72;;;25.20;56.90;;;;;;6237626;28;20033;-77
2023/09/16 09:02:59;;;;;;;8.05;2.75;;;25.30;56.80;;;;;;6238156;28;20203;-78
2023/09/16 09:06:00;;;;;;;17.45;4.78;;;25.40;56.80;;;;;;6220067;28;20123;-80
2023/09/16 09:09:01;;;;;;;5.55;2.50;;;25.40;56.40;;;;;;6237448;28;20037;-79
2023/09/16 09:12:03;;;;;;;4.18;1.80;;;25.50;56.10;;;;;;6237103;28;20041;-79
2023/09/16 09:15:08;;;;;;;5.20;1.85;;;25.70;55.70;;;;;;6239216;28;20737;-77
2023/09/16 09:18:11;;;;;;;2.95;1.40;;;25.80;55.30;;;;;;6237996;28;20021;-77
2023/09/16 09:21:13;;;;;;;4.38;1.67;;;25.80;54.60;;;;;;6231975;28;20112;-78
2023/09/16 09:24:14;;;;;;;7.40;1.92;;;25.80;54.00;;;;;;6213180;28;20030;-77
2023/09/16 09:27:15;;;;;;;6.78;2.00;;;26.00;53.90;;;;;;6213343;28;20041;-78
2023/09/16 09:30:16;;;;;;;5.78;1.70;;;26.00;53.60;;;;;;6214148;28;20030;-79
2023/09/16 09:33:20;;;;;;;8.35;2.00;;;26.10;53.50;;;;;;6214145;28;20045;-78
2023/09/16 09:36:21;;;;;;;6.22;2.15;;;26.30;53.30;;;;;;6213889;28;20117;-78
2023/09/16 09:39:22;;;;;;;8.95;4.63;;;26.40;53.20;;;;;;6211462;28;20432;-77
2023/09/16 09:42:23;;;;;;;14.00;5.38;;;26.40;52.90;;;;;;6211676;28;20102;-77
2023/09/16 09:45:25;;;;;;;4.70;2.50;;;26.40;52.90;;;;;;6224523;28;20045;-78
2023/09/16 09:48:26;;;;;;;7.90;2.05;;;26.50;52.80;;;;;;6225652;28;20117;-79
2023/09/16 09:51:28;;;;;;;3.97;2.33;;;26.60;52.60;;;;;;6231916;28;20057;-77
2023/09/16 09:54:29;;;;;;;14.00;2.63;;;26.60;52.40;;;;;;6235554;28;20470;-76
2023/09/16 09:57:29;;;;;;;8.38;1.63;;;26.50;52.00;;;;;;6239088;28;20059;-77
2023/09/16 10:00:30;;;;;;;5.65;2.33;;;26.40;52.00;;;;;;6240365;28;20063;-76
2023/09/16 10:03:33;;;;;;;7.50;2.30;;;26.30;51.90;;;;;;6240666;28;20041;-78
2023/09/16 10:06:35;;;;;;;18.92;7.07;;;26.20;52.10;;;;;;6242082;28;20034;-77
2023/09/16 10:09:35;;;;;;;10.23;3.80;;;26.20;52.10;;;;;;6240221;28;20139;-76
2023/09/16 10:12:36;;;;;;;7.20;2.70;;;26.20;52.50;;;;;;6241729;28;20051;-78
2023/09/16 10:15:39;;;;;;;13.13;4.45;;;26.30;51.70;;;;;;6232678;28;20061;-77
2023/09/16 10:18:40;;;;;;;9.60;3.45;;;26.40;51.50;;;;;;6215497;28;20051;-78
2023/09/16 10:21:41;;;;;;;8.32;2.58;;;26.40;51.20;;;;;;6215443;28;20038;-78
2023/09/16 10:24:43;;;;;;;10.40;3.00;;;26.40;51.60;;;;;;6217131;28;20104;-77
2023/09/16 10:28:03;;;;;;;15.27;5.32;;;26.50;51.90;;;;;;6216860;28;20046;-77
2023/09/16 10:31:04;;;;;;;8.82;2.78;;;26.60;51.90;;;;;;6217044;28;20064;-78
2023/09/16 10:34:06;;;;;;;18.77;4.32;;;26.70;51.40;;;;;;6217293;28;20038;-79
2023/09/16 10:37:07;;;;;;;10.45;2.80;;;26.80;51.20;;;;;;6214988;28;20034;-77
2023/09/16 10:40:10;;;;;;;13.25;4.57;;;26.90;50.90;;;;;;6237971;28;20108;-77
2023/09/16 10:43:14;;;;;;;9.98;3.42;;;27.00;50.50;;;;;;6239842;28;20091;-78
2023/09/16 10:46:17;;;;;;;6.80;1.60;;;27.00;50.20;;;;;;6205845;28;20041;-76
2023/09/16 10:49:18;;;;;;;4.15;1.60;;;27.10;50.00;;;;;;6216491;28;20053;-77
2023/09/16 10:52:30;;;;;;;9.93;3.28;;;27.10;49.10;;;;;;6216259;28;20022;-78
2023/09/16 10:55:54;;;;;;;5.68;2.00;;;27.10;48.90;;;;;;6214769;28;20034;-79
2023/09/16 10:59:10;;;;;;;12.82;3.88;;;27.00;48.50;;;;;;6217038;28;20069;-77
2023/09/16 11:02:42;;;;;;;11.18;4.75;;;27.20;48.20;;;;;;6216528;28;20072;-78
2023/09/16 11:05:43;;;;;;;9.05;2.35;;;27.40;48.50;;;;;;6216415;28;20171;-77
2023/09/16 11:08:44;;;;;;;3.13;1.60;;;27.70;48.20;;;;;;6216279;28;20394;-78
2023/09/16 11:11:46;;;;;;;6.40;1.65;;;28.10;47.70;;;;;;6231825;28;20120;-77
2023/09/16 11:14:48;;;;;;;5.63;1.77;;;28.80;46.80;;;;;;6217308;28;20058;-78
2023/09/16 11:17:59;;;;;;;8.50;2.30;;;29.40;45.60;;;;;;6216559;28;20029;-78
2023/09/16 11:21:00;;;;;;;5.28;2.17;;;30.20;44.10;;;;;;6215576;28;20030;-77
2023/09/16 11:24:00;;;;;;;7.85;1.70;;;30.80;42.70;;;;;;6214147;28;20535;-78
2023/09/16 11:27:02;;;;;;;5.55;1.25;;;31.30;40.50;;;;;;6215864;28;20132;-77
2023/09/16 11:30:11;;;;;;;5.22;1.75;;;31.60;39.90;;;;;;6214021;28;20675;-78
2023/09/16 11:33:38;;;;;;;9.10;1.75;;;31.80;39.30;;;;;;6215741;28;20036;-79
2023/09/16 11:36:46;;;;;;;7.72;1.23;;;32.20;38.70;;;;;;6214076;28;20426;-76
2023/09/16 11:39:49;;;;;;;3.72;1.00;;;32.60;36.80;;;;;;6213671;28;20026;-78
2023/09/16 11:42:50;;;;;;;5.72;0.77;;;32.70;35.90;;;;;;6215483;28;20032;-77
2023/09/16 11:45:51;;;;;;;2.45;1.20;;;32.80;34.10;;;;;;6229080;28;20037;-81
2023/09/16 11:48:54;;;;;;;3.45;1.42;;;32.70;34.70;;;;;;6238051;28;20509;-77
2023/09/16 11:51:55;;;;;;;11.10;1.33;;;32.60;34.80;;;;;;6239300;28;20547;-78
2023/09/16 11:54:57;;;;;;;3.75;1.10;;;32.50;35.10;;;;;;6239856;28;20029;-77
2023/09/16 11:57:57;;;;;;;4.13;1.58;;;32.40;34.90;;;;;;6239833;28;20227;-77
2023/09/16 12:00:59;;;;;;;5.68;0.95;;;32.30;34.40;;;;;;6237980;28;20751;-78
2023/09/16 12:04:04;;;;;;;4.10;0.80;;;32.00;34.60;;;;;;6239357;28;20110;-78
2023/09/16 12:07:05;;;;;;;5.35;0.70;;;31.90;34.30;;;;;;6220251;28;20128;-78
2023/09/16 12:10:07;;;;;;;5.47;1.85;;;31.80;34.40;;;;;;6237348;28;20037;-76
2023/09/16 12:13:08;;;;;;;2.00;0.82;;;31.60;34.50;;;;;;6239245;28;20036;-79
2023/09/16 12:16:10;;;;;;;2.80;0.60;;;31.50;34.10;;;;;;6239630;28;20025;-75
2023/09/16 12:19:11;;;;;;;4.68;0.70;;;31.40;34.40;;;;;;6237388;28;20043;-78
2023/09/16 12:22:12;;;;;;;3.55;0.90;;;31.20;34.40;;;;;;6236978;28;20045;-77
2023/09/16 12:25:13;;;;;;;8.98;1.65;;;31.10;34.70;;;;;;6238862;28;20059;-77
2023/09/16 12:28:21;;;;;;;4.38;0.65;;;31.10;34.80;;;;;;6237304;28;20034;-77
2023/09/16 12:31:23;;;;;;;4.30;1.10;;;31.10;34.40;;;;;;6223477;28;20124;-77
2023/09/16 12:34:25;;;;;;;2.92;0.82;;;31.00;34.90;;;;;;6195975;28;20038;-78
2023/09/16 12:37:27;;;;;;;4.00;0.88;;;31.00;35.10;;;;;;6213490;28;20081;-78
2023/09/16 12:40:28;;;;;;;5.30;1.10;;;30.90;35.30;;;;;;6212226;28;20045;-77
2023/09/16 12:43:30;;;;;;;2.38;1.05;;;30.90;35.40;;;;;;6214098;28;20104;-78
2023/09/16 12:46:31;;;;;;;1.90;0.50;;;30.90;35.30;;;;;;6233476;28;20121;-78
2023/09/16 12:49:34;;;;;;;1.40;0.75;;;30.80;35.10;;;;;;6236761;28;20053;-77
2023/09/16 12:52:35;;;;;;;1.88;0.40;;;30.90;34.90;;;;;;6237860;28;20692;-75
2023/09/16 12:55:36;;;;;;;5.82;0.80;;;30.80;34.80;;;;;;6238195;28;20158;-77
2023/09/16 12:58:43;;;;;;;2.95;1.73;;;30.80;34.60;;;;;;6236624;28;20033;-77
2023/09/16 13:01:44;;;;;;;6.70;1.23;;;30.80;34.90;;;;;;6237986;28;20032;-77
2023/09/16 13:04:45;;;;;;;0.77;0.57;;;30.80;34.60;;;;;;6237202;28;20284;-77
2023/09/16 13:07:52;;;;;;;7.25;1.20;;;30.90;34.70;;;;;;6227272;28;20108;-77
2023/09/16 13:10:54;;;;;;;3.13;0.63;;;31.00;34.60;;;;;;6236693;28;20026;-77
2023/09/16 13:13:55;;;;;;;3.40;1.27;;;31.30;34.20;;;;;;6237764;28;20056;-77
2023/09/16 13:16:56;;;;;;;1.33;0.68;;;31.90;32.70;;;;;;6237036;28;20552;-77
2023/09/16 13:20:00;;;;;;;3.22;0.80;;;32.00;32.60;;;;;;6235619;28;20041;-76
2023/09/16 13:23:01;;;;;;;0.98;0.60;;;31.90;32.60;;;;;;6236079;28;20055;-78
2023/09/16 13:26:13;;;;;;;5.28;1.00;;;31.80;32.90;;;;;;6237921;28;20041;-77
2023/09/16 13:29:14;;;;;;;2.38;1.08;;;31.60;33.30;;;;;;6219828;28;20033;-77
2023/09/16 13:32:15;;;;;;;2.03;0.98;;;31.60;33.40;;;;;;6236025;28;20660;-78
2023/09/16 13:35:17;;;;;;;2.45;0.88;;;31.50;33.50;;;;;;6237986;28;20025;-78
2023/09/16 13:38:17;;;;;;;2.53;0.73;;;31.40;33.70;;;;;;6236322;28;20040;-78
2023/09/16 13:41:20;;;;;;;2.90;0.80;;;31.40;33.80;;;;;;6237564;28;20069;-77
2023/09/16 13:44:21;;;;;;;1.77;1.13;;;31.20;33.90;;;;;;6219297;28;20072;-76
2023/09/16 13:47:22;;;;;;;3.33;1.08;;;31.20;34.20;;;;;;6235711;28;20085;-77
2023/09/16 13:50:23;;;;;;;2.40;0.60;;;31.10;34.30;;;;;;6236974;28;20046;-78
2023/09/16 13:53:25;;;;;;;4.32;0.60;;;31.10;34.20;;;;;;6237163;28;20057;-78
2023/09/16 13:56:26;;;;;;;3.58;0.77;;;31.20;34.30;;;;;;6237326;28;20810;-77
2023/09/16 13:59:27;;;;;;;3.58;0.77;;;31.20;33.90;;;;;;6237250;28;20048;-76
2023/09/16 14:02:28;;;;;;;1.27;0.60;;;31.10;33.70;;;;;;6237712;28;20105;-77
2023/09/16 14:05:29;;;;;;;1.33;0.55;;;30.90;33.70;;;;;;6236915;28;20112;-78
2023/09/16 14:08:29;;;;;;;4.57;0.80;;;31.00;33.80;;;;;;6238955;28;20511;-77
2023/09/16 14:11:30;;;;;;;3.30;0.60;;;31.10;33.80;;;;;;6237661;28;20116;-77
2023/09/16 14:14:31;;;;;;;1.52;0.70;;;31.00;33.70;;;;;;6237079;28;20029;-78
2023/09/16 14:17:32;;;;;;;1.67;0.60;;;31.00;34.40;;;;;;6238307;28;20048;-77
2023/09/16 14:20:33;;;;;;;3.40;0.65;;;31.00;33.90;;;;;;6238666;28;20097;-78
2023/09/16 14:23:34;;;;;;;5.05;0.75;;;31.10;33.90;;;;;;6236694;28;20026;-77
2023/09/16 14:26:36;;;;;;;2.72;0.63;;;31.20;33.80;;;;;;6236792;28;20115;-74
2023/09/16 14:29:37;;;;;;;3.90;0.77;;;31.10;33.60;;;;;;6234950;28;20038;-75
2023/09/16 14:32:38;;;;;;;1.02;0.50;;;31.00;33.40;;;;;;6235237;28;20068;-74
2023/09/16 14:35:39;;;;;;;2.60;0.65;;;30.90;33.80;;;;;;6234686;28;20025;-75
2023/09/16 14:38:39;;;;;;;4.22;0.85;;;30.80;34.20;;;;;;6234737;28;20477;-77
2023/09/16 14:41:41;;;;;;;1.90;1.15;;;30.60;34.40;;;;;;6235817;28;20143;-76
2023/09/16 14:44:41;;;;;;;6.65;1.50;;;30.50;34.70;;;;;;6238734;28;20049;-76
2023/09/16 14:47:42;;;;;;;3.33;1.33;;;30.40;34.90;;;;;;6239261;28;20109;-76
2023/09/16 14:50:43;;;;;;;4.00;1.25;;;30.30;35.20;;;;;;6239932;28;20041;-75
2023/09/16 14:53:44;;;;;;;6.10;1.45;;;30.20;35.40;;;;;;6240752;28;20033;-76
2023/09/16 14:56:46;;;;;;;13.13;2.95;;;30.10;35.50;;;;;;6239017;28;20497;-75
2023/09/16 14:59:47;;;;;;;3.25;1.13;;;30.00;35.70;;;;;;6239110;28;20037;-75
2023/09/16 15:02:48;;;;;;;3.05;1.73;;;29.90;35.80;;;;;;6239362;28;20041;-76
2023/09/16 15:05:49;;;;;;;8.63;2.55;;;29.90;35.90;;;;;;6222426;28;20029;-76
2023/09/16 15:08:50;;;;;;;5.07;1.67;;;29.90;36.20;;;;;;6240599;28;20029;-76
2023/09/16 15:11:51;;;;;;;16.30;3.28;;;29.80;36.30;;;;;;6226906;28;20054;-76
2023/09/16 15:14:52;;;;;;;6.63;1.88;;;29.60;36.40;;;;;;6214808;28;20033;-75
2023/09/16 15:17:53;;;;;;;5.97;1.65;;;29.60;36.60;;;;;;6214348;28;20041;-76
2023/09/16 15:20:54;;;;;;;7.05;1.30;;;29.50;36.70;;;;;;6233146;28;20042;-76
2023/09/16 15:23:55;;;;;;;6.20;1.50;;;29.40;36.90;;;;;;6238538;28;20037;-75
2023/09/16 15:26:57;;;;;;;3.17;1.20;;;29.30;37.10;;;;;;6239990;28;20025;-76
2023/09/16 15:29:58;;;;;;;5.50;1.00;;;29.30;37.40;;;;;;6239749;28;20041;-75
2023/09/16 15:32:59;;;;;;;2.80;1.20;;;29.20;37.50;;;;;;6240024;28;20099;-76
2023/09/16 15:36:00;;;;;;;8.23;2.35;;;29.20;37.60;;;;;;6239858;28;20083;-76
2023/09/16 15:39:01;;;;;;;5.95;2.22;;;29.10;37.70;;;;;;6237819;28;20029;-75
2023/09/16 15:42:02;;;;;;;2.10;1.08;;;29.10;37.80;;;;;;6239284;28;20033;-74
2023/09/16 15:45:04;;;;;;;4.95;1.17;;;29.00;37.90;;;;;;6239518;28;20030;-76